Time;durP1;ratioP1;P1;durP2;ratioP2;P2;SDS_P1;SDS_P2;PMS_P1;PMS_P2;Temp;Humidity;BMP_temperature;BMP_pressure;BME280_temperature;BME280_humidity;BME280_pressure;Samples;Min_cycle;Max_cycle;Signal;HPM_P1;HPM_P2
2021/11/16 00:00:46;;;;;;;11.48;6.18;;;7.10;99.90;;;;;;6686382;88;20210;-76
2021/11/16 00:10:47;;;;;;;11.07;6.60;;;7.00;99.90;;;;;;6684868;88;20217;-77
2021/11/16 00:20:47;;;;;;;15.70;7.60;;;7.20;99.90;;;;;;6684680;88;20208;-78
2021/11/16 00:30:49;;;;;;;15.18;7.53;;;7.10;99.90;;;;;;6685995;88;20708;-76
2021/11/16 00:40:49;;;;;;;14.45;7.15;;;7.20;99.90;;;;;;6685130;88;20655;-76
2021/11/16 00:50:52;;;;;;;16.60;7.43;;;6.90;99.90;;;;;;6686310;88;20225;-77
2021/11/16 01:00:53;;;;;;;13.15;6.75;;;7.00;99.90;;;;;;6679074;88;20570;-76
2021/11/16 01:10:55;;;;;;;14.40;7.20;;;7.20;99.90;;;;;;6680533;88;20303;-76
2021/11/16 01:20:57;;;;;;;15.30;7.32;;;7.10;99.90;;;;;;6685034;88;20286;-77
2021/11/16 01:31:01;;;;;;;15.65;7.50;;;6.90;99.90;;;;;;6683346;88;20217;-77
2021/11/16 01:41:02;;;;;;;18.40;8.10;;;7.20;99.90;;;;;;6674912;89;20218;-76
2021/11/16 01:51:03;;;;;;;18.00;8.40;;;7.10;99.90;;;;;;6686180;89;20689;-76
2021/11/16 02:01:03;;;;;;;16.05;7.95;;;7.10;99.90;;;;;;6683243;89;21219;-76
2021/11/16 02:11:04;;;;;;;17.77;8.48;;;6.90;99.90;;;;;;6683643;89;20718;-77
2021/11/16 02:21:06;;;;;;;18.60;8.50;;;7.10;99.90;;;;;;6677236;88;20303;-79
2021/11/16 02:31:06;;;;;;;18.98;9.05;;;7.20;99.90;;;;;;6683525;89;20268;-77
2021/11/16 02:41:07;;;;;;;19.58;8.73;;;7.00;99.90;;;;;;6687721;88;20203;-79
2021/11/16 02:51:11;;;;;;;20.62;8.65;;;7.00;99.90;;;;;;6684851;88;20317;-76
2021/11/16 03:01:19;;;;;;;18.30;8.52;;;6.90;99.90;;;;;;6684475;88;20216;-77
2021/11/16 03:11:19;;;;;;;18.90;8.90;;;6.90;99.90;;;;;;6684285;88;20175;-76
2021/11/16 03:21:23;;;;;;;21.75;8.85;;;6.90;99.90;;;;;;6680182;88;20214;-77
2021/11/16 03:41:27;;;;;;;20.73;9.27;;;6.80;99.90;;;;;;6688276;88;20280;-77
2021/11/16 03:51:28;;;;;;;18.83;9.38;;;6.80;99.90;;;;;;6689091;88;20273;-77
2021/11/16 04:01:29;;;;;;;20.53;8.77;;;7.00;99.90;;;;;;6683562;88;20684;-77
2021/11/16 04:11:29;;;;;;;21.35;8.80;;;7.10;99.90;;;;;;6694739;88;20517;-78
2021/11/16 04:21:30;;;;;;;21.92;9.48;;;7.10;99.90;;;;;;6690368;88;20690;-77
2021/11/16 04:31:30;;;;;;;22.55;9.25;;;6.80;99.90;;;;;;6681365;88;20617;-77
2021/11/16 04:41:31;;;;;;;18.15;8.57;;;6.80;99.90;;;;;;6691142;88;20176;-77
2021/11/16 04:51:41;;;;;;;19.57;8.93;;;6.80;99.90;;;;;;6688083;88;20213;-77
2021/11/16 05:12:01;;;;;;;18.90;8.73;;;7.10;99.90;;;;;;6687368;88;20174;-77
2021/11/16 05:33:03;;;;;;;21.60;9.30;;;6.90;99.90;;;;;;6692965;88;20232;-77
2021/11/16 05:43:04;;;;;;;21.25;9.15;;;6.90;99.90;;;;;;6692099;89;20195;-80
2021/11/16 05:53:06;;;;;;;20.95;9.20;;;7.00;99.90;;;;;;6688788;89;20210;-78
2021/11/16 06:03:06;;;;;;;23.48;9.45;;;6.80;99.90;;;;;;6691578;89;20772;-77
2021/11/16 06:13:07;;;;;;;19.92;9.13;;;6.90;99.90;;;;;;6690246;89;20220;-78
2021/11/16 06:23:10;;;;;;;22.60;9.52;;;6.70;99.90;;;;;;6693733;88;20550;-78
2021/11/16 06:33:11;;;;;;;20.55;9.23;;;6.80;99.90;;;;;;6693952;88;20207;-78
2021/11/16 06:43:22;;;;;;;22.20;9.00;;;6.80;99.90;;;;;;6694395;88;20204;-78
2021/11/16 06:53:29;;;;;;;17.95;7.93;;;6.80;99.90;;;;;;6691187;88;20216;-78
2021/11/16 07:03:30;;;;;;;19.67;8.48;;;6.80;99.90;;;;;;6691117;88;20215;-77
2021/11/16 07:13:31;;;;;;;20.87;8.83;;;6.80;99.90;;;;;;6674163;89;20203;-77
2021/11/16 07:23:31;;;;;;;22.08;9.68;;;6.60;99.90;;;;;;6684856;88;20531;-77
2021/11/16 07:33:32;;;;;;;17.00;8.48;;;6.60;99.90;;;;;;6689349;88;20218;-77
2021/11/16 07:43:32;;;;;;;18.37;8.55;;;6.60;99.90;;;;;;6688337;88;20201;-78
2021/11/16 07:53:37;;;;;;;15.35;8.05;;;6.60;99.90;;;;;;6691698;88;20194;-77
2021/11/16 08:03:49;;;;;;;15.48;7.87;;;6.50;99.90;;;;;;6687014;88;20676;-78
2021/11/16 08:13:59;;;;;;;14.00;7.57;;;6.60;99.90;;;;;;6690824;88;20185;-78
2021/11/16 08:24:06;;;;;;;14.73;7.03;;;6.60;99.90;;;;;;6685382;88;20199;-77
2021/11/16 08:34:06;;;;;;;;;;;6.50;99.90;;;;;;6687850;88;20191;-78
2021/11/16 08:44:22;;;;;;;10.23;5.65;;;6.60;99.90;;;;;;6685860;88;20070;-78
2021/11/16 08:54:25;;;;;;;10.70;5.90;;;6.60;99.90;;;;;;6674574;88;20674;-78
2021/11/16 09:04:29;;;;;;;12.50;6.40;;;6.50;99.90;;;;;;6689334;88;20273;-78
2021/11/16 09:14:31;;;;;;;11.00;5.80;;;6.60;99.90;;;;;;6689371;88;20318;-78
2021/11/16 09:24:37;;;;;;;13.48;6.50;;;6.70;99.90;;;;;;6690863;88;20187;-78
2021/11/16 09:34:41;;;;;;;13.57;7.40;;;6.60;99.90;;;;;;6674780;89;20187;-78
2021/11/16 09:44:48;;;;;;;19.55;9.35;;;6.50;99.90;;;;;;6681287;89;20960;-78
2021/11/16 09:55:02;;;;;;;17.05;8.73;;;6.50;99.90;;;;;;6676503;89;20200;-78
2021/11/16 10:05:14;;;;;;;17.40;7.57;;;6.50;99.90;;;;;;6676054;88;20725;-78
2021/11/16 10:15:16;;;;;;;15.85;7.37;;;6.50;99.90;;;;;;6694456;88;20203;-78
2021/11/16 10:25:23;;;;;;;13.23;7.05;;;6.70;99.90;;;;;;6689186;88;20230;-79
2021/11/16 10:35:24;;;;;;;13.45;6.30;;;6.70;99.90;;;;;;6684204;88;20665;-78
2021/11/16 10:45:28;;;;;;;14.15;7.05;;;6.90;99.90;;;;;;6682595;88;20403;-77
2021/11/16 10:55:52;;;;;;;10.88;5.10;;;7.00;99.90;;;;;;6687919;88;20739;-78
2021/11/16 11:06:04;;;;;;;10.40;4.85;;;7.10;99.90;;;;;;6688014;88;20196;-78
2021/11/16 11:16:14;;;;;;;12.45;5.65;;;7.00;99.90;;;;;;6686897;88;20190;-78
2021/11/16 11:26:28;;;;;;;12.20;5.50;;;7.30;99.90;;;;;;6699819;77;20205;-76
2021/11/16 11:36:29;;;;;;;10.80;5.32;;;7.20;99.90;;;;;;6735134;88;20226;-78
2021/11/16 11:46:49;;;;;;;9.77;5.00;;;7.20;99.90;;;;;;6735687;88;20315;-77
2021/11/16 11:56:51;;;;;;;8.75;4.80;;;7.30;99.90;;;;;;6726169;88;20227;-76
2021/11/16 12:06:53;;;;;;;10.20;4.45;;;7.50;99.90;;;;;;6732983;88;20184;-76
2021/11/16 12:17:05;;;;;;;8.88;4.30;;;7.60;99.90;;;;;;6729066;88;20173;-76
2021/11/16 12:27:07;;;;;;;8.25;4.35;;;7.50;99.90;;;;;;6729470;88;20217;-77
2021/11/16 12:37:10;;;;;;;7.65;3.70;;;7.50;99.90;;;;;;6728172;88;20262;-76
2021/11/16 12:47:14;;;;;;;7.35;3.17;;;7.50;99.90;;;;;;6730880;88;20193;-77
2021/11/16 12:57:23;;;;;;;6.53;2.70;;;7.50;99.90;;;;;;6729433;88;20191;-76
2021/11/16 13:07:29;;;;;;;8.73;4.05;;;7.50;99.90;;;;;;6719915;88;20793;-76
2021/11/16 13:17:55;;;;;;;8.60;3.70;;;7.50;99.90;;;;;;6731308;88;20185;-76
2021/11/16 13:27:57;;;;;;;6.40;2.50;;;7.40;99.90;;;;;;6729716;88;20226;-77
2021/11/16 13:37:57;;;;;;;6.28;2.33;;;7.30;99.90;;;;;;6727968;88;20311;-77
2021/11/16 13:47:58;;;;;;;5.05;2.00;;;7.10;99.90;;;;;;6725981;88;20185;-77
2021/11/16 13:58:05;;;;;;;3.97;1.83;;;7.00;99.90;;;;;;6719738;88;20761;-76
2021/11/16 14:08:12;;;;;;;3.97;2.12;;;7.00;99.90;;;;;;6723193;88;20526;-76
2021/11/16 14:18:19;;;;;;;6.65;2.70;;;7.00;99.90;;;;;;6720566;88;20211;-76
2021/11/16 14:28:26;;;;;;;4.40;2.00;;;7.10;99.90;;;;;;6731448;88;20196;-77
2021/11/16 14:38:33;;;;;;;5.65;1.98;;;6.90;99.90;;;;;;6728647;88;20989;-76
2021/11/16 14:48:36;;;;;;;3.72;2.08;;;6.90;99.90;;;;;;6718328;88;20202;-76
2021/11/16 14:58:36;;;;;;;4.50;2.17;;;6.80;99.90;;;;;;6732274;88;20208;-76
2021/11/16 15:08:37;;;;;;;5.80;2.20;;;7.00;99.90;;;;;;6726477;88;20225;-77
2021/11/16 15:18:37;;;;;;;3.73;2.10;;;7.00;99.90;;;;;;6718907;88;20209;-77
2021/11/16 15:28:41;;;;;;;4.70;2.45;;;6.80;99.90;;;;;;6732868;87;20539;-76
2021/11/16 15:38:47;;;;;;;4.85;2.40;;;7.00;99.90;;;;;;6718674;88;20283;-78
2021/11/16 15:48:51;;;;;;;3.80;2.00;;;6.80;99.90;;;;;;6733439;88;20188;-77
2021/11/16 15:58:58;;;;;;;4.47;2.08;;;6.70;99.90;;;;;;6732765;88;20206;-76
2021/11/16 16:09:23;;;;;;;5.03;2.30;;;6.90;99.90;;;;;;6723474;88;20193;-77
2021/11/16 16:19:30;;;;;;;5.32;2.20;;;6.90;99.90;;;;;;6716065;88;20207;-77
2021/11/16 16:29:30;;;;;;;4.35;2.30;;;6.80;99.90;;;;;;6724514;88;20360;-76
2021/11/16 16:39:31;;;;;;;3.87;2.20;;;6.90;99.90;;;;;;6728507;88;20176;-77
2021/11/16 16:49:32;;;;;;;4.12;2.30;;;6.80;99.90;;;;;;6720890;88;20755;-75
2021/11/16 16:59:33;;;;;;;5.97;2.92;;;6.80;99.90;;;;;;6719640;88;20286;-78
2021/11/16 17:09:33;;;;;;;4.95;2.40;;;6.90;99.90;;;;;;6737145;88;20339;-78
2021/11/16 17:19:34;;;;;;;5.53;2.90;;;6.70;99.90;;;;;;6738105;88;20618;-76
2021/11/16 17:29:35;;;;;;;4.30;2.25;;;6.60;99.90;;;;;;6739891;88;20188;-77
2021/11/16 17:39:37;;;;;;;6.53;2.80;;;6.90;99.90;;;;;;6739972;88;20546;-77
2021/11/16 17:49:37;;;;;;;7.15;2.87;;;6.60;99.90;;;;;;6743364;88;20171;-80
2021/11/16 17:59:38;;;;;;;6.62;3.25;;;6.60;99.90;;;;;;6751464;88;20185;-77
2021/11/16 18:09:39;;;;;;;4.45;2.50;;;6.60;99.90;;;;;;6743802;88;20597;-77
2021/11/16 18:19:42;;;;;;;5.05;2.53;;;6.60;99.90;;;;;;6742330;88;20228;-78
2021/11/16 18:29:43;;;;;;;7.60;2.87;;;6.60;99.90;;;;;;6740269;88;20219;-78
2021/11/16 18:39:47;;;;;;;5.78;2.97;;;6.60;99.90;;;;;;6742369;88;20247;-78
2021/11/16 18:49:49;;;;;;;8.77;3.33;;;6.50;99.90;;;;;;6736503;88;20991;-77
2021/11/16 18:59:53;;;;;;;7.03;3.40;;;6.50;99.90;;;;;;6728547;88;20205;-78
2021/11/16 19:09:54;;;;;;;7.03;3.20;;;6.40;99.90;;;;;;6723419;88;20767;-78
2021/11/16 19:19:55;;;;;;;6.07;3.33;;;6.40;99.90;;;;;;6736043;88;20197;-78
2021/11/16 19:29:57;;;;;;;8.77;3.22;;;6.40;99.90;;;;;;6762465;88;20315;-78
2021/11/16 19:40:00;;;;;;;6.55;2.92;;;6.20;99.90;;;;;;6751384;88;21161;-78
2021/11/16 19:50:03;;;;;;;5.87;3.22;;;6.20;99.90;;;;;;6734364;88;20203;-78
2021/11/16 20:00:08;;;;;;;4.65;2.60;;;6.20;99.90;;;;;;6731294;88;20196;-79
2021/11/16 20:10:10;;;;;;;8.95;3.22;;;6.10;99.90;;;;;;6731386;88;20185;-78
2021/11/16 20:20:11;;;;;;;6.72;3.12;;;6.10;99.90;;;;;;6747378;88;20666;-78
2021/11/16 20:30:16;;;;;;;6.95;3.10;;;6.00;99.90;;;;;;6747505;88;20184;-79
2021/11/16 20:41:05;;;;;;;5.40;3.10;;;5.90;99.90;;;;;;6735406;88;20691;-78
2021/11/16 21:01:01;;;;;;;5.20;2.90;;;6.00;99.90;;;;;;6730566;88;20173;-78
2021/11/16 21:11:03;;;;;;;7.28;3.05;;;6.00;99.90;;;;;;6744983;88;20191;-79
2021/11/16 21:21:07;;;;;;;9.10;3.75;;;6.10;99.90;;;;;;6746811;88;20318;-77
2021/11/16 21:31:10;;;;;;;9.13;3.95;;;5.90;99.90;;;;;;6728298;88;20207;-78
2021/11/16 21:41:16;;;;;;;10.68;3.90;;;5.90;99.90;;;;;;6731520;88;20180;-79
2021/11/16 21:51:17;;;;;;;9.83;4.07;;;5.90;99.90;;;;;;6746380;88;20206;-80
2021/11/16 22:01:18;;;;;;;8.48;4.70;;;5.90;99.90;;;;;;6750836;88;20668;-80
2021/11/16 22:21:21;;;;;;;8.63;3.97;;;5.70;99.90;;;;;;6762429;88;20217;-79
2021/11/16 22:31:28;;;;;;;9.68;4.65;;;5.80;99.90;;;;;;6765501;88;20193;-79
2021/11/16 22:41:38;;;;;;;8.80;4.50;;;5.80;99.90;;;;;;6759266;87;20214;-79
2021/11/16 22:51:40;;;;;;;8.48;4.40;;;5.70;99.90;;;;;;6755763;88;20585;-79
